createdAt,value
2019-02-08T00:01:59.391Z,39.60
2019-02-08T00:04:30.294Z,36.70
2019-02-08T00:07:01.572Z,37.17
2019-02-08T00:09:32.966Z,38.43
2019-02-08T00:12:03.905Z,37.60
2019-02-08T00:14:34.803Z,35.33
2019-02-08T00:17:05.746Z,34.40
2019-02-08T00:19:36.652Z,36.23
2019-02-08T00:22:08.679Z,33.43
2019-02-08T00:24:39.615Z,34.90
2019-02-08T00:27:12.544Z,35.97
2019-02-08T00:29:43.459Z,38.30
2019-02-08T00:32:14.411Z,40.97
2019-02-08T00:34:45.287Z,37.70
2019-02-08T00:37:16.525Z,35.80
2019-02-08T00:39:47.425Z,35.63
2019-02-08T00:42:18.723Z,34.77
2019-02-08T00:44:50.511Z,33.13
2019-02-08T00:47:21.441Z,34.10
2019-02-08T00:49:52.623Z,32.83
2019-02-08T00:52:23.546Z,32.40
2019-02-08T00:54:54.456Z,32.63
2019-02-08T00:57:25.448Z,33.03
2019-02-08T00:59:56.356Z,31.63
2019-02-08T01:02:27.361Z,30.80
2019-02-08T01:04:58.536Z,30.77
2019-02-08T01:07:29.474Z,27.63
2019-02-08T01:10:00.454Z,28.60
2019-02-08T01:12:31.406Z,30.53
2019-02-08T01:15:02.321Z,27.63
2019-02-08T01:17:33.320Z,28.97
2019-02-08T01:20:16.275Z,27.77
2019-02-08T01:22:47.313Z,28.07
2019-02-08T01:25:20.116Z,25.43
2019-02-08T01:27:51.667Z,25.50
2019-02-08T01:30:24.768Z,24.90
2019-02-08T01:32:55.809Z,25.37
2019-02-08T01:35:28.155Z,26.47
2019-02-08T01:38:00.300Z,25.70
2019-02-08T01:40:36.707Z,24.87
2019-02-08T01:43:09.188Z,25.40
2019-02-08T01:45:40.703Z,23.77
2019-02-08T01:48:12.004Z,24.27
2019-02-08T01:50:42.906Z,23.30
2019-02-08T01:53:13.839Z,22.30
2019-02-08T01:55:44.757Z,23.63
2019-02-08T01:58:15.707Z,22.20
2019-02-08T02:00:46.605Z,21.23
2019-02-08T02:03:17.637Z,21.60
2019-02-08T02:05:48.535Z,22.27
2019-02-08T02:08:19.541Z,22.30
2019-02-08T02:10:50.456Z,21.90
2019-02-08T02:13:21.469Z,22.90
2019-02-08T02:15:52.378Z,22.20
2019-02-08T02:18:23.302Z,20.80
2019-02-08T02:20:54.203Z,21.10
2019-02-08T02:23:25.611Z,21.13
2019-02-08T02:25:56.464Z,21.00
2019-02-08T02:28:27.580Z,21.23
2019-02-08T02:30:58.478Z,19.70
2019-02-08T02:33:29.419Z,21.93
2019-02-08T02:36:00.318Z,20.30
2019-02-08T02:38:31.255Z,21.20
2019-02-08T02:41:02.149Z,19.47
2019-02-08T02:43:33.168Z,19.57
2019-02-08T02:46:04.859Z,19.83
2019-02-08T02:48:35.770Z,19.43
2019-02-08T02:51:06.692Z,17.70
2019-02-08T02:53:37.613Z,19.10
2019-02-08T02:56:08.521Z,18.30
2019-02-08T02:58:39.594Z,18.53
2019-02-08T03:01:10.562Z,19.00
2019-02-08T03:03:41.497Z,18.80
2019-02-08T03:06:12.410Z,18.23
2019-02-08T03:08:43.350Z,18.20
2019-02-08T03:11:14.264Z,16.57
2019-02-08T03:13:45.265Z,17.27
2019-02-08T03:16:16.158Z,16.53
2019-02-08T03:18:47.091Z,17.87
2019-02-08T03:21:17.978Z,16.17
2019-02-08T03:23:48.911Z,16.63
2019-02-08T03:26:19.815Z,14.63
2019-02-08T03:28:50.955Z,15.10
2019-02-08T03:31:21.862Z,16.47
2019-02-08T03:33:52.785Z,15.77
2019-02-08T03:36:23.691Z,16.33
2019-02-08T03:38:54.632Z,15.20
2019-02-08T03:41:25.535Z,13.87
2019-02-08T03:43:56.579Z,15.87
2019-02-08T03:46:29.359Z,15.27
2019-02-08T03:49:00.280Z,14.67
2019-02-08T03:51:31.198Z,14.53
2019-02-08T03:54:02.217Z,15.17
2019-02-08T03:56:33.123Z,13.83
2019-02-08T03:59:04.071Z,15.03
2019-02-08T04:01:35.074Z,15.37
2019-02-08T04:04:14.744Z,15.07
2019-02-08T04:06:45.653Z,15.50
2019-02-08T04:09:16.596Z,15.03
2019-02-08T04:11:47.493Z,35.77
2019-02-08T04:14:18.533Z,82.77
2019-02-08T04:16:49.452Z,76.10
2019-02-08T04:19:20.383Z,33.47
2019-02-08T04:21:51.360Z,23.10
2019-02-08T04:24:29.836Z,17.90
2019-02-08T04:26:54.960Z,19.83
2019-02-08T04:29:26.024Z,16.73
2019-02-08T04:31:56.925Z,16.20
2019-02-08T04:34:27.857Z,16.93
2019-02-08T04:36:58.770Z,15.63
2019-02-08T04:39:29.708Z,15.80
2019-02-08T04:42:00.616Z,17.87
2019-02-08T04:44:32.112Z,18.93
2019-02-08T04:47:03.008Z,16.30
2019-02-08T04:49:33.930Z,16.17
2019-02-08T04:52:04.838Z,16.07
2019-02-08T04:54:38.373Z,15.10
2019-02-08T04:57:08.350Z,16.27
2019-02-08T04:59:39.296Z,15.83
2019-02-08T05:02:10.193Z,14.90
2019-02-08T05:04:41.129Z,14.53
2019-02-08T05:07:12.023Z,17.33
2019-02-08T05:09:42.963Z,16.27
2019-02-08T05:12:13.864Z,15.47
2019-02-08T05:14:45.186Z,16.87
2019-02-08T05:17:16.087Z,18.13
2019-02-08T05:19:47.031Z,15.03
2019-02-08T05:22:17.930Z,15.73
2019-02-08T05:24:48.877Z,16.60
2019-02-08T05:27:19.774Z,20.23
2019-02-08T05:29:50.734Z,17.87
2019-02-08T05:32:21.706Z,21.13
2019-02-08T05:34:52.634Z,25.27
2019-02-08T05:37:27.242Z,24.60
2019-02-08T05:39:58.179Z,21.90
2019-02-08T05:42:29.075Z,26.67
2019-02-08T05:45:00.039Z,26.23
2019-02-08T05:47:31.930Z,28.10
2019-02-08T05:50:02.864Z,25.00
2019-02-08T05:52:33.762Z,19.23
2019-02-08T05:55:07.704Z,21.73
2019-02-08T05:57:38.587Z,27.37
2019-02-08T06:00:22.370Z,21.57
2019-02-08T06:02:53.355Z,17.00
2019-02-08T06:05:25.571Z,24.67
2019-02-08T06:07:56.547Z,21.50
2019-02-08T06:10:27.491Z,20.80
2019-02-08T06:12:58.383Z,18.60
2019-02-08T06:15:29.437Z,20.33
2019-02-08T06:18:00.457Z,20.00
2019-02-08T06:20:31.394Z,19.50
2019-02-08T06:23:02.368Z,18.97
2019-02-08T06:25:33.302Z,19.10
2019-02-08T06:28:05.112Z,26.80
2019-02-08T06:30:36.492Z,21.60
2019-02-08T06:33:07.483Z,26.43
2019-02-08T06:35:38.523Z,34.97
2019-02-08T06:38:09.521Z,19.30
2019-02-08T06:40:42.876Z,24.20
2019-02-08T06:43:13.782Z,20.47
2019-02-08T06:45:44.904Z,19.50
2019-02-08T06:48:16.609Z,21.37
2019-02-08T06:50:47.525Z,19.90
2019-02-08T06:53:18.431Z,20.37
2019-02-08T06:55:53.836Z,20.23
2019-02-08T06:58:29.592Z,18.50
2019-02-08T07:01:02.353Z,17.30
2019-02-08T07:03:37.639Z,18.83
2019-02-08T07:06:13.291Z,17.90
2019-02-08T07:08:45.869Z,17.57
2019-02-08T07:11:24.275Z,18.60
2019-02-08T07:14:05.798Z,17.17
2019-02-08T07:16:38.626Z,16.33
2019-02-08T07:19:11.222Z,21.77
2019-02-08T07:21:43.781Z,18.97
2019-02-08T07:24:34.336Z,16.80
2019-02-08T07:27:07.014Z,16.37
2019-02-08T07:29:40.174Z,15.83
2019-02-08T07:32:15.842Z,15.40
2019-02-08T07:35:06.501Z,16.07
2019-02-08T07:37:41.914Z,16.97
2019-02-08T07:40:29.301Z,15.27
2019-02-08T07:43:05.951Z,16.83
2019-02-08T07:45:56.359Z,21.73
2019-02-08T07:48:32.113Z,16.17
2019-02-08T07:51:04.662Z,15.60
2019-02-08T07:53:40.080Z,15.83
2019-02-08T07:56:16.479Z,14.90
2019-02-08T07:59:07.395Z,16.27
2019-02-08T08:01:40.626Z,17.37
2019-02-08T08:04:13.230Z,16.00
2019-02-08T08:06:45.887Z,16.60
2019-02-08T08:09:21.416Z,14.50
2019-02-08T08:11:56.777Z,15.93
2019-02-08T08:14:29.762Z,17.60
2019-02-08T08:17:18.549Z,13.97
2019-02-08T08:20:04.255Z,16.80
2019-02-08T08:22:39.699Z,15.97
2019-02-08T08:25:12.578Z,16.03
2019-02-08T08:27:45.127Z,14.43
2019-02-08T08:30:23.482Z,12.80
2019-02-08T08:32:57.368Z,13.60
2019-02-08T08:35:43.164Z,14.57
2019-02-08T08:38:44.128Z,14.00
2019-02-08T08:41:37.541Z,13.63
2019-02-08T08:44:30.905Z,12.83
2019-02-08T08:47:24.361Z,13.83
2019-02-08T08:50:14.255Z,13.67
2019-02-08T08:52:59.820Z,13.37
2019-02-08T08:55:42.082Z,14.93
2019-02-08T08:58:14.934Z,16.17
2019-02-08T09:00:51.387Z,13.40
2019-02-08T09:03:30.745Z,15.07
2019-02-08T09:06:13.561Z,13.23
2019-02-08T09:08:50.205Z,12.50
2019-02-08T09:11:25.208Z,12.50
2019-02-08T09:14:05.086Z,12.30
2019-02-08T09:16:51.156Z,12.73
2019-02-08T09:19:53.779Z,14.87
2019-02-08T09:22:39.323Z,11.80
2019-02-08T09:25:34.329Z,13.17
2019-02-08T09:28:10.820Z,12.93
2019-02-08T09:31:17.809Z,11.57
2019-02-08T09:34:17.180Z,13.60
2019-02-08T09:37:10.366Z,14.50
2019-02-08T09:39:46.917Z,12.20
2019-02-08T09:42:55.459Z,12.80
2019-02-08T09:45:44.399Z,14.20
2019-02-08T09:48:40.712Z,13.67
2019-02-08T09:51:17.219Z,15.10
2019-02-08T09:53:54.035Z,13.63
2019-02-08T09:56:55.279Z,12.20
2019-02-08T09:59:44.147Z,13.60
2019-02-08T10:02:29.811Z,13.33
2019-02-08T10:05:25.943Z,13.47
2019-02-08T10:08:32.972Z,16.50
2019-02-08T10:11:32.134Z,12.47
2019-02-08T10:14:29.986Z,14.27
2019-02-08T10:17:12.681Z,12.93
2019-02-08T10:19:58.152Z,14.13
2019-02-08T10:22:38.003Z,12.87
2019-02-08T10:25:28.218Z,18.13
2019-02-08T10:28:17.239Z,15.43
2019-02-08T10:31:12.169Z,14.00
2019-02-08T10:34:18.999Z,16.13
2019-02-08T10:37:21.439Z,14.57
2019-02-08T10:40:14.578Z,18.70
2019-02-08T10:43:21.642Z,13.10
2019-02-08T10:46:01.611Z,14.37
2019-02-08T10:49:08.545Z,12.77
2019-02-08T10:52:01.945Z,13.57
2019-02-08T10:54:53.900Z,19.97
2019-02-08T10:57:59.568Z,21.83
2019-02-08T11:01:00.665Z,15.00
2019-02-08T11:04:01.661Z,13.43
2019-02-08T11:06:51.896Z,13.07
2019-02-08T11:09:52.815Z,12.87
2019-02-08T11:12:49.061Z,49.90
2019-02-08T11:15:39.354Z,31.17
2019-02-08T11:18:47.262Z,13.63
2019-02-08T11:21:18.193Z,14.67
2019-02-08T11:23:49.099Z,14.57
2019-02-08T11:26:23.060Z,15.47
2019-02-08T11:28:52.646Z,20.00
2019-02-08T11:31:23.584Z,17.00
2019-02-08T11:33:54.483Z,15.70
2019-02-08T11:36:25.514Z,28.90
2019-02-08T11:38:56.426Z,15.80
2019-02-08T11:41:27.569Z,14.77
2019-02-08T11:43:58.470Z,13.53
2019-02-08T11:46:29.613Z,17.13
2019-02-08T11:49:00.509Z,15.47
2019-02-08T11:51:31.449Z,15.33
2019-02-08T11:54:02.349Z,16.07
2019-02-08T11:56:33.312Z,14.83
2019-02-08T11:59:04.708Z,16.70
2019-02-08T12:01:37.284Z,20.17
2019-02-08T12:04:08.793Z,19.83
2019-02-08T12:06:39.728Z,15.57
2019-02-08T12:09:12.941Z,16.83
2019-02-08T12:11:44.342Z,17.53
2019-02-08T12:14:15.491Z,14.60
2019-02-08T12:16:46.420Z,14.70
2019-02-08T12:19:17.316Z,16.47
2019-02-08T12:21:48.246Z,15.87
2019-02-08T12:24:19.152Z,18.13
2019-02-08T12:26:50.180Z,19.67
2019-02-08T12:29:21.085Z,14.37
2019-02-08T12:31:52.062Z,20.17
2019-02-08T12:34:22.969Z,20.07
2019-02-08T12:36:53.909Z,17.13
2019-02-08T12:39:24.810Z,20.77
2019-02-08T12:41:55.785Z,16.63
2019-02-08T12:44:26.693Z,15.80
2019-02-08T12:46:57.630Z,15.47
2019-02-08T12:49:28.522Z,14.07
2019-02-08T12:51:59.461Z,13.27
2019-02-08T12:54:30.380Z,12.10
2019-02-08T12:57:01.353Z,12.63
2019-02-08T12:59:32.309Z,11.50
2019-02-08T13:02:03.220Z,11.40
2019-02-08T13:04:34.122Z,13.07
2019-02-08T13:07:05.259Z,13.07
2019-02-08T13:09:36.166Z,12.73
2019-02-08T13:12:07.114Z,11.70
2019-02-08T13:14:38.022Z,14.63
2019-02-08T13:17:08.950Z,14.50
2019-02-08T13:19:39.851Z,12.93
2019-02-08T13:22:10.785Z,13.07
2019-02-08T13:24:41.691Z,14.27
2019-02-08T13:27:12.643Z,13.37
2019-02-08T13:29:43.554Z,16.13
2019-02-08T13:32:14.493Z,22.03
2019-02-08T13:34:45.395Z,14.97
2019-02-08T13:37:16.328Z,18.93
2019-02-08T13:39:47.239Z,15.43
2019-02-08T13:42:18.228Z,16.20
2019-02-08T13:44:49.146Z,13.83
2019-02-08T13:47:20.190Z,13.93
2019-02-08T13:49:51.100Z,16.67
2019-02-08T13:52:22.034Z,18.98
2019-02-08T13:54:53.052Z,18.50
2019-02-08T13:57:23.998Z,17.73
2019-02-08T13:59:54.908Z,13.17
2019-02-08T14:02:25.853Z,14.45
2019-02-08T14:04:56.764Z,13.62
2019-02-08T14:07:27.699Z,14.40
2019-02-08T14:09:58.603Z,10.83
2019-02-08T14:12:29.575Z,10.60
2019-02-08T14:15:00.485Z,11.10
2019-02-08T14:17:31.415Z,11.63
2019-02-08T14:20:02.381Z,12.13
2019-02-08T14:22:33.313Z,72.33
2019-02-08T14:25:05.625Z,55.33
2019-02-08T14:27:36.575Z,25.30
2019-02-08T14:30:18.902Z,52.00
2019-02-08T14:32:49.817Z,47.53
2019-02-08T14:35:20.756Z,23.20
2019-02-08T14:37:51.810Z,18.33
2019-02-08T14:40:24.607Z,20.93
2019-02-08T14:42:55.732Z,19.87
2019-02-08T14:45:26.638Z,18.43
2019-02-08T14:47:57.571Z,19.93
2019-02-08T14:50:29.781Z,18.37
2019-02-08T14:53:00.811Z,21.80
2019-02-08T14:55:31.711Z,17.53
2019-02-08T14:58:05.017Z,22.73
2019-02-08T15:00:35.977Z,18.97
2019-02-08T15:03:06.913Z,18.33
2019-02-08T15:05:37.807Z,16.40
2019-02-08T15:08:08.741Z,18.53
2019-02-08T15:10:42.637Z,19.27
2019-02-08T15:13:13.795Z,20.27
2019-02-08T15:15:44.699Z,19.70
2019-02-08T15:18:15.610Z,22.40
2019-02-08T15:20:46.505Z,17.33
2019-02-08T15:23:17.595Z,19.77
2019-02-08T15:25:48.492Z,15.33
2019-02-08T15:28:19.469Z,20.30
2019-02-08T15:30:50.375Z,19.63
2019-02-08T15:33:21.333Z,32.23
2019-02-08T15:35:52.201Z,34.97
2019-02-08T15:38:23.238Z,55.83
2019-02-08T15:40:55.648Z,28.73
2019-02-08T15:43:26.705Z,31.83
2019-02-08T15:45:59.546Z,19.70
2019-02-08T15:48:30.572Z,27.97
2019-02-08T15:51:01.675Z,28.67
2019-02-08T15:53:32.897Z,17.40
2019-02-08T15:56:06.993Z,20.37
2019-02-08T15:58:37.996Z,18.83
2019-02-08T16:01:10.172Z,20.77
2019-02-08T16:03:41.212Z,27.13
2019-02-08T16:06:12.423Z,30.83
2019-02-08T16:08:43.378Z,16.10
2019-02-08T16:11:14.312Z,24.37
2019-02-08T16:13:45.334Z,32.23
2019-02-08T16:16:16.379Z,21.30
2019-02-08T16:18:47.382Z,18.37
2019-02-08T16:21:18.507Z,18.50
2019-02-08T16:23:49.477Z,26.17
2019-02-08T16:26:24.205Z,21.33
2019-02-08T16:28:55.183Z,16.63
2019-02-08T16:31:26.120Z,16.30
2019-02-08T16:33:57.195Z,16.50
2019-02-08T16:36:28.218Z,18.70
2019-02-08T16:38:59.186Z,26.17
2019-02-08T16:41:30.192Z,29.03
2019-02-08T16:44:01.259Z,19.73
2019-02-08T16:46:33.471Z,19.17
2019-02-08T16:49:04.744Z,21.67
2019-02-08T16:51:35.640Z,26.77
2019-02-08T16:54:06.760Z,18.80
2019-02-08T16:56:38.546Z,17.17
2019-02-08T16:59:09.646Z,16.73
2019-02-08T17:01:40.565Z,17.77
2019-02-08T17:04:11.575Z,20.93
2019-02-08T17:06:42.512Z,25.10
2019-02-08T17:09:14.044Z,19.00
2019-02-08T17:11:44.957Z,19.87
2019-02-08T17:14:15.928Z,21.90
2019-02-08T17:16:46.832Z,22.13
2019-02-08T17:19:17.781Z,22.77
2019-02-08T17:21:48.939Z,21.87
2019-02-08T17:24:19.878Z,21.83
2019-02-08T17:26:50.775Z,22.70
2019-02-08T17:29:21.848Z,22.30
2019-02-08T17:31:52.731Z,20.27
2019-02-08T17:34:23.663Z,18.53
2019-02-08T17:36:54.565Z,18.80
2019-02-08T17:39:25.497Z,16.60
2019-02-08T17:41:56.412Z,16.70
2019-02-08T17:44:27.368Z,18.80
2019-02-08T17:46:58.276Z,23.93
2019-02-08T17:49:29.307Z,32.40
2019-02-08T17:52:00.205Z,43.87
2019-02-08T17:54:31.148Z,74.57
2019-02-08T17:57:02.141Z,120.27
2019-02-08T17:59:33.109Z,52.10
2019-02-08T18:02:04.020Z,218.60
2019-02-08T18:04:34.963Z,38.63
2019-02-08T18:07:05.887Z,496.83
2019-02-08T18:09:36.850Z,618.40
2019-02-08T18:12:07.768Z,256.07
2019-02-08T18:14:38.867Z,30.67
2019-02-08T18:17:09.765Z,22.67
2019-02-08T18:19:40.698Z,18.33
2019-02-08T18:22:11.600Z,19.27
2019-02-08T18:24:42.563Z,18.30
2019-02-08T18:27:13.467Z,18.50
2019-02-08T18:29:44.545Z,18.63
2019-02-08T18:32:15.452Z,18.00
2019-02-08T18:34:46.372Z,18.47
2019-02-08T18:37:17.278Z,18.83
2019-02-08T18:39:48.211Z,20.67
2019-02-08T18:42:19.110Z,22.33
2019-02-08T18:44:50.079Z,28.80
2019-02-08T18:47:20.975Z,35.87
2019-02-08T18:49:51.928Z,22.83
2019-02-08T18:52:22.821Z,22.20
2019-02-08T18:54:53.763Z,19.30
2019-02-08T18:57:25.451Z,20.87
2019-02-08T18:59:56.416Z,20.87
2019-02-08T19:02:27.325Z,23.63
2019-02-08T19:04:58.277Z,20.97
2019-02-08T19:07:29.187Z,22.50
2019-02-08T19:10:00.216Z,19.87
2019-02-08T19:12:31.082Z,24.50
2019-02-08T19:15:02.037Z,23.00
2019-02-08T19:17:33.022Z,18.33
2019-02-08T19:20:05.146Z,20.20
2019-02-08T19:22:36.068Z,20.27
2019-02-08T19:25:09.904Z,20.27
2019-02-08T19:27:40.806Z,17.10
2019-02-08T19:30:20.467Z,18.83
2019-02-08T19:32:51.379Z,19.40
2019-02-08T19:35:22.318Z,17.77
2019-02-08T19:37:53.218Z,21.33
2019-02-08T19:40:27.131Z,15.70
2019-02-08T19:42:58.043Z,19.87
2019-02-08T19:45:29.018Z,14.70
2019-02-08T19:48:00.038Z,17.87
2019-02-08T19:50:33.754Z,16.23
2019-02-08T19:53:05.782Z,18.10
2019-02-08T19:55:36.718Z,35.63
2019-02-08T19:58:08.523Z,25.77
2019-02-08T20:00:44.369Z,33.23
2019-02-08T20:03:15.279Z,30.80
2019-02-08T20:05:46.210Z,26.77
2019-02-08T20:08:17.099Z,16.57
2019-02-08T20:10:49.807Z,19.77
2019-02-08T20:13:20.720Z,31.47
2019-02-08T20:15:51.718Z,26.93
2019-02-08T20:18:22.619Z,36.30
2019-02-08T20:20:53.570Z,27.40
2019-02-08T20:23:24.497Z,32.03
2019-02-08T20:25:55.413Z,22.17
2019-02-08T20:28:26.315Z,28.50
2019-02-08T20:30:57.272Z,32.27
2019-02-08T20:33:28.182Z,23.17
2019-02-08T20:35:59.115Z,39.07
2019-02-08T20:38:30.021Z,29.27
2019-02-08T20:41:00.961Z,32.00
2019-02-08T20:43:31.868Z,31.93
2019-02-08T20:46:02.821Z,21.23
2019-02-08T20:48:33.737Z,56.63
2019-02-08T20:51:04.680Z,25.13
2019-02-08T20:53:35.646Z,37.80
2019-02-08T20:56:06.981Z,20.93
2019-02-08T20:58:38.799Z,18.17
2019-02-08T21:01:10.057Z,19.07
2019-02-08T21:03:40.966Z,19.20
2019-02-08T21:06:12.006Z,23.83
2019-02-08T21:08:42.912Z,22.23
2019-02-08T21:11:13.838Z,20.30
2019-02-08T21:13:44.743Z,21.00
2019-02-08T21:16:21.254Z,20.03
2019-02-08T21:18:52.168Z,22.00
2019-02-08T21:21:23.097Z,19.30
2019-02-08T21:23:54.009Z,19.33
2019-02-08T21:26:24.943Z,17.93
2019-02-08T21:28:58.078Z,23.60
2019-02-08T21:31:28.506Z,21.80
2019-02-08T21:33:59.523Z,17.77
2019-02-08T21:36:38.589Z,23.10
2019-02-08T21:39:03.336Z,20.47
2019-02-08T21:41:34.266Z,18.13
2019-02-08T21:44:05.367Z,19.77
2019-02-08T21:46:36.329Z,18.13
2019-02-08T21:49:07.220Z,21.00
2019-02-08T21:51:38.143Z,21.87
2019-02-08T21:54:09.053Z,23.53
2019-02-08T21:56:39.981Z,22.00
2019-02-08T21:59:11.993Z,23.53
2019-02-08T22:01:42.993Z,18.07
2019-02-08T22:04:14.213Z,17.87
2019-02-08T22:06:45.162Z,17.43
2019-02-08T22:09:16.161Z,15.87
2019-02-08T22:11:47.096Z,18.73
2019-02-08T22:14:18.002Z,17.67
2019-02-08T22:16:49.036Z,16.40
2019-02-08T22:19:19.946Z,18.30
2019-02-08T22:21:50.894Z,16.27
2019-02-08T22:24:21.805Z,16.20
2019-02-08T22:26:52.741Z,18.67
2019-02-08T22:29:23.644Z,18.00
2019-02-08T22:31:54.605Z,16.97
2019-02-08T22:34:25.508Z,15.97
2019-02-08T22:36:56.455Z,15.73
2019-02-08T22:39:27.364Z,14.77
2019-02-08T22:41:58.297Z,20.13
2019-02-08T22:44:29.203Z,18.50
2019-02-08T22:47:00.161Z,16.30
2019-02-08T22:49:31.088Z,18.60
2019-02-08T22:52:02.022Z,21.63
2019-02-08T22:54:32.947Z,18.40
2019-02-08T22:57:03.874Z,19.43
2019-02-08T22:59:34.789Z,19.33
2019-02-08T23:02:07.533Z,15.80
2019-02-08T23:04:38.440Z,14.73
2019-02-08T23:07:09.582Z,16.97
2019-02-08T23:09:40.488Z,72.10
2019-02-08T23:12:11.427Z,25.27
2019-02-08T23:14:42.327Z,23.07
2019-02-08T23:17:13.283Z,17.80
2019-02-08T23:19:44.182Z,22.10
2019-02-08T23:22:15.121Z,28.57
2019-02-08T23:24:46.197Z,21.20
2019-02-08T23:27:17.126Z,25.77
2019-02-08T23:29:48.035Z,22.37
2019-02-08T23:32:18.987Z,22.50
2019-02-08T23:34:49.891Z,20.67
2019-02-08T23:37:25.885Z,17.23
2019-02-08T23:42:54.304Z,34.43
2019-02-08T23:45:25.209Z,24.17
2019-02-08T23:47:59.676Z,20.17
2019-02-08T23:50:30.579Z,17.60
2019-02-08T23:53:01.554Z,23.27
2019-02-08T23:55:32.454Z,21.07
2019-02-08T23:58:03.381Z,18.83
